createdAt,value
2023-05-07T00:01:32.756Z,14.10
2023-05-07T00:04:01.154Z,14.68
2023-05-07T00:06:30.098Z,14.43
2023-05-07T00:08:59.421Z,13.90
2023-05-07T00:11:28.334Z,14.25
2023-05-07T00:13:56.674Z,14.50
2023-05-07T00:16:25.114Z,15.65
2023-05-07T00:18:54.396Z,13.82
2023-05-07T00:21:22.687Z,14.38
2023-05-07T00:23:50.898Z,14.55
2023-05-07T00:26:19.090Z,14.35
2023-05-07T00:28:49.705Z,14.52
2023-05-07T00:31:18.061Z,15.32
2023-05-07T00:33:46.503Z,15.63
2023-05-07T00:36:14.872Z,15.40
2023-05-07T00:38:43.147Z,16.45
2023-05-07T00:41:11.603Z,15.35
2023-05-07T00:43:40.138Z,14.48
2023-05-07T00:46:08.574Z,15.93
2023-05-07T00:48:36.914Z,16.85
2023-05-07T00:51:05.688Z,16.90
2023-05-07T00:53:34.268Z,16.33
2023-05-07T00:56:03.632Z,18.10
2023-05-07T00:58:32.208Z,17.50
2023-05-07T01:01:00.848Z,17.27
2023-05-07T01:03:29.169Z,17.08
2023-05-07T01:06:00.796Z,17.08
2023-05-07T01:08:31.023Z,15.63
2023-05-07T01:11:00.286Z,14.55
2023-05-07T01:13:29.778Z,17.40
2023-05-07T01:15:58.172Z,15.27
2023-05-07T01:18:27.748Z,14.95
2023-05-07T01:20:59.264Z,15.40
2023-05-07T01:23:30.691Z,15.43
2023-05-07T01:25:59.009Z,14.90
2023-05-07T01:28:29.183Z,14.60
2023-05-07T01:31:07.246Z,14.57
2023-05-07T01:33:39.174Z,14.45
2023-05-07T01:36:09.803Z,14.75
2023-05-07T01:38:39.797Z,15.27
2023-05-07T01:41:08.633Z,14.77
2023-05-07T01:43:37.399Z,16.23
2023-05-07T01:46:06.149Z,18.27
2023-05-07T01:48:35.637Z,18.38
2023-05-07T01:51:04.275Z,19.20
2023-05-07T01:53:38.008Z,20.10
2023-05-07T01:56:07.422Z,18.83
2023-05-07T01:58:38.141Z,19.88
2023-05-07T02:01:06.443Z,20.13
2023-05-07T02:03:34.863Z,20.80
2023-05-07T02:06:10.947Z,19.88
2023-05-07T02:08:41.308Z,19.80
2023-05-07T02:11:10.070Z,18.92
2023-05-07T02:13:38.661Z,19.75
2023-05-07T02:16:07.830Z,18.25
2023-05-07T02:18:37.060Z,20.27
2023-05-07T02:21:05.648Z,18.65
2023-05-07T02:23:34.519Z,17.92
2023-05-07T02:26:05.154Z,18.95
2023-05-07T02:28:33.649Z,18.98
2023-05-07T02:31:05.369Z,17.92
2023-05-07T02:33:35.969Z,18.67
2023-05-07T02:36:08.279Z,18.42
2023-05-07T02:38:38.334Z,18.80
2023-05-07T02:41:07.181Z,17.38
2023-05-07T02:43:35.439Z,17.90
2023-05-07T02:46:08.786Z,18.35
2023-05-07T02:48:40.621Z,17.55
2023-05-07T02:51:09.288Z,17.58
2023-05-07T02:53:39.304Z,16.80
2023-05-07T02:56:08.130Z,16.52
2023-05-07T02:58:36.426Z,16.20
2023-05-07T03:01:06.850Z,17.05
2023-05-07T03:03:41.025Z,17.23
2023-05-07T03:06:09.408Z,16.58
2023-05-07T03:08:37.756Z,18.20
2023-05-07T03:11:06.278Z,16.80
2023-05-07T03:13:34.514Z,18.33
2023-05-07T03:16:03.029Z,18.38
2023-05-07T03:18:31.754Z,17.42
2023-05-07T03:21:00.281Z,17.95
2023-05-07T03:23:28.556Z,19.63
2023-05-07T03:25:56.933Z,19.77
2023-05-07T03:28:25.191Z,17.52
2023-05-07T03:30:58.919Z,16.77
2023-05-07T03:33:28.601Z,17.23
2023-05-07T03:35:57.822Z,15.10
2023-05-07T03:38:27.591Z,16.67
2023-05-07T03:40:56.731Z,16.25
2023-05-07T03:43:25.354Z,15.02
2023-05-07T03:46:01.435Z,15.85
2023-05-07T03:48:31.074Z,16.08
2023-05-07T03:51:01.308Z,14.32
2023-05-07T03:53:33.955Z,14.77
2023-05-07T03:56:02.574Z,13.93
2023-05-07T03:58:35.038Z,14.32
2023-05-07T04:03:37.053Z,14.07
2023-05-07T04:06:06.911Z,13.50
2023-05-07T04:08:37.079Z,13.20
2023-05-07T04:11:07.036Z,14.88
2023-05-07T04:13:37.278Z,14.27
2023-05-07T04:16:08.288Z,12.73
2023-05-07T04:18:38.303Z,15.05
2023-05-07T04:21:14.562Z,13.75
2023-05-07T04:23:42.967Z,14.82
2023-05-07T04:26:13.637Z,15.75
2023-05-07T04:28:44.921Z,14.05
2023-05-07T04:31:13.916Z,14.75
2023-05-07T04:33:42.900Z,14.68
2023-05-07T04:36:14.571Z,15.43
2023-05-07T04:38:54.261Z,15.25
2023-05-07T04:41:22.598Z,15.05
2023-05-07T04:43:52.658Z,14.85
2023-05-07T04:46:23.691Z,14.43
2023-05-07T04:48:52.252Z,15.93
2023-05-07T04:51:20.571Z,15.68
2023-05-07T04:53:50.048Z,16.83
2023-05-07T04:56:18.583Z,15.57
2023-05-07T04:58:48.595Z,16.55
2023-05-07T05:01:20.818Z,17.08
2023-05-07T05:03:49.733Z,16.55
2023-05-07T05:06:18.420Z,16.25
2023-05-07T05:08:46.660Z,16.38
2023-05-07T05:11:15.990Z,15.43
2023-05-07T05:13:44.915Z,18.05
2023-05-07T05:16:18.958Z,17.00
2023-05-07T05:18:47.461Z,17.33
2023-05-07T05:21:19.082Z,18.40
2023-05-07T05:23:49.577Z,17.83
2023-05-07T05:26:25.197Z,18.42
2023-05-07T05:28:53.609Z,17.52
2023-05-07T05:31:24.764Z,17.52
2023-05-07T05:33:53.586Z,17.63
2023-05-07T05:36:21.915Z,20.88
2023-05-07T05:38:51.999Z,21.98
2023-05-07T05:41:21.690Z,23.85
2023-05-07T05:43:51.010Z,23.77
2023-05-07T05:46:21.073Z,23.35
2023-05-07T05:48:52.324Z,22.88
2023-05-07T05:51:21.645Z,23.15
2023-05-07T05:53:49.937Z,21.50
2023-05-07T05:56:18.567Z,22.35
2023-05-07T05:58:47.319Z,22.27
2023-05-07T06:01:16.589Z,21.55
2023-05-07T06:03:45.229Z,20.65
2023-05-07T06:06:16.423Z,21.05
2023-05-07T06:08:45.926Z,21.13
2023-05-07T06:11:18.331Z,21.73
2023-05-07T06:13:48.641Z,20.02
2023-05-07T06:16:17.048Z,19.58
2023-05-07T06:18:47.681Z,20.35
2023-05-07T06:21:17.636Z,20.08
2023-05-07T06:23:45.946Z,19.13
2023-05-07T06:26:14.975Z,20.40
2023-05-07T06:28:46.259Z,20.55
2023-05-07T06:31:23.538Z,22.02
2023-05-07T06:33:56.932Z,22.58
2023-05-07T06:39:00.770Z,20.92
2023-05-07T06:41:29.030Z,20.13
2023-05-07T06:44:00.778Z,20.92
2023-05-07T06:46:41.371Z,21.92
2023-05-07T06:49:09.763Z,21.83
2023-05-07T06:51:38.265Z,22.50
2023-05-07T06:54:06.633Z,23.08
2023-05-07T06:56:37.487Z,22.50
2023-05-07T06:59:08.514Z,21.17
2023-05-07T07:01:41.530Z,20.33
2023-05-07T07:04:12.033Z,21.25
2023-05-07T07:06:42.830Z,19.70
2023-05-07T07:09:14.443Z,20.95
2023-05-07T07:11:43.379Z,20.98
2023-05-07T07:14:12.205Z,20.83
2023-05-07T07:16:47.944Z,21.35
2023-05-07T07:19:18.072Z,22.55
2023-05-07T07:21:49.020Z,22.52
2023-05-07T07:24:20.340Z,22.02
2023-05-07T07:26:50.122Z,23.27
2023-05-07T07:29:19.771Z,22.23
2023-05-07T07:31:51.280Z,22.25
2023-05-07T07:34:21.078Z,21.40
2023-05-07T07:36:50.323Z,20.17
2023-05-07T07:39:20.436Z,21.58
2023-05-07T07:41:51.880Z,19.45
2023-05-07T07:44:21.804Z,21.27
2023-05-07T07:46:59.629Z,19.15
2023-05-07T07:49:29.266Z,20.00
2023-05-07T07:52:00.492Z,18.63
2023-05-07T07:54:30.348Z,19.13
2023-05-07T07:56:59.307Z,18.00
2023-05-07T07:59:28.476Z,21.08
2023-05-07T08:01:58.134Z,21.05
2023-05-07T08:04:28.695Z,19.95
2023-05-07T08:06:58.706Z,19.55
2023-05-07T08:09:27.407Z,17.83
2023-05-07T08:11:57.137Z,17.35
2023-05-07T08:14:25.661Z,17.88
2023-05-07T08:16:54.039Z,17.40
2023-05-07T08:19:23.176Z,16.42
2023-05-07T08:21:52.226Z,16.52
2023-05-07T08:24:21.745Z,17.23
2023-05-07T08:26:50.665Z,18.40
2023-05-07T08:29:19.501Z,18.38
2023-05-07T08:31:48.678Z,20.25
2023-05-07T08:34:17.182Z,19.13
2023-05-07T08:36:49.535Z,18.60
2023-05-07T08:39:20.574Z,19.08
2023-05-07T08:41:56.100Z,17.17
2023-05-07T08:44:27.409Z,20.73
2023-05-07T08:46:58.011Z,14.85
2023-05-07T08:49:28.637Z,15.02
2023-05-07T08:51:57.660Z,16.60
2023-05-07T08:54:27.254Z,16.70
2023-05-07T08:56:56.080Z,17.52
2023-05-07T08:59:25.251Z,18.52
2023-05-07T09:01:54.519Z,19.42
2023-05-07T09:04:23.020Z,19.60
2023-05-07T09:06:52.836Z,19.30
2023-05-07T09:09:23.677Z,19.85
2023-05-07T09:12:00.694Z,19.65
2023-05-07T09:14:31.700Z,21.15
2023-05-07T09:17:00.958Z,23.23
2023-05-07T09:19:31.084Z,22.77
2023-05-07T09:22:08.343Z,22.42
2023-05-07T09:24:50.873Z,20.25
2023-05-07T09:27:21.782Z,20.73
2023-05-07T09:29:49.980Z,21.33
2023-05-07T09:32:18.974Z,19.58
2023-05-07T09:34:48.353Z,19.58
2023-05-07T09:37:19.335Z,19.70
2023-05-07T09:39:49.921Z,22.00
2023-05-07T09:42:27.679Z,20.38
2023-05-07T09:45:00.148Z,20.02
2023-05-07T09:47:37.915Z,18.73
2023-05-07T09:50:09.560Z,19.30
2023-05-07T09:52:39.781Z,20.17
2023-05-07T09:55:10.348Z,20.55
2023-05-07T09:57:41.301Z,19.70
2023-05-07T10:00:11.944Z,20.75
2023-05-07T10:03:04.594Z,17.83
2023-05-07T10:05:43.463Z,16.83
2023-05-07T10:08:12.553Z,16.60
2023-05-07T10:10:42.367Z,19.17
2023-05-07T10:13:14.775Z,16.77
2023-05-07T10:15:48.928Z,19.77
2023-05-07T10:18:23.771Z,18.83
2023-05-07T10:20:55.545Z,19.63
2023-05-07T10:23:27.752Z,20.25
2023-05-07T10:26:03.022Z,17.83
2023-05-07T10:28:38.306Z,18.83
2023-05-07T10:31:14.388Z,18.65
2023-05-07T10:33:49.857Z,16.98
2023-05-07T10:36:21.311Z,20.30
2023-05-07T10:38:49.749Z,17.95
2023-05-07T10:41:19.872Z,16.70
2023-05-07T10:43:49.417Z,18.35
2023-05-07T10:46:29.381Z,16.55
2023-05-07T10:49:04.799Z,17.35
2023-05-07T10:51:42.369Z,17.38
2023-05-07T10:54:23.452Z,17.70
2023-05-07T10:57:18.965Z,17.48
2023-05-07T10:59:47.358Z,16.67
2023-05-07T11:02:23.989Z,17.00
2023-05-07T11:05:22.073Z,19.88
2023-05-07T11:08:10.349Z,19.63
2023-05-07T11:10:59.492Z,20.20
2023-05-07T11:13:56.975Z,18.08
2023-05-07T11:16:42.985Z,17.10
2023-05-07T11:19:53.405Z,18.85
2023-05-07T11:22:34.353Z,19.50
2023-05-07T11:25:22.870Z,14.73
2023-05-07T11:28:07.787Z,15.18
2023-05-07T11:30:36.839Z,15.55
2023-05-07T11:33:07.450Z,18.10
2023-05-07T11:35:37.320Z,16.65
2023-05-07T11:38:07.596Z,19.50
2023-05-07T11:40:51.237Z,16.63
2023-05-07T11:43:19.581Z,15.95
2023-05-07T11:45:48.782Z,17.73
2023-05-07T11:48:18.072Z,16.48
2023-05-07T11:50:54.008Z,16.48
2023-05-07T11:53:25.806Z,15.75
2023-05-07T11:55:54.897Z,14.73
2023-05-07T11:58:25.194Z,14.77
2023-05-07T12:00:54.674Z,15.70
2023-05-07T12:03:23.099Z,14.10
2023-05-07T12:05:51.553Z,14.70
2023-05-07T12:08:21.512Z,13.57
2023-05-07T12:10:52.075Z,15.40
2023-05-07T12:13:22.137Z,13.68
2023-05-07T12:15:57.754Z,11.55
2023-05-07T12:18:26.766Z,13.40
2023-05-07T12:20:55.042Z,13.38
2023-05-07T12:23:24.413Z,13.00
2023-05-07T12:25:52.930Z,11.90
2023-05-07T12:28:21.368Z,11.20
2023-05-07T12:30:51.394Z,12.02
2023-05-07T12:33:25.709Z,11.93
2023-05-07T12:35:56.650Z,13.68
2023-05-07T12:38:25.037Z,12.80
2023-05-07T12:40:56.058Z,10.98
2023-05-07T12:43:31.033Z,13.30
2023-05-07T12:46:07.627Z,12.80
2023-05-07T12:48:39.130Z,11.40
2023-05-07T12:51:08.810Z,12.15
2023-05-07T12:53:44.844Z,12.43
2023-05-07T12:56:13.237Z,11.95
2023-05-07T12:58:41.587Z,11.13
2023-05-07T13:01:11.153Z,11.27
2023-05-07T13:03:40.179Z,11.90
2023-05-07T13:06:13.823Z,9.57
2023-05-07T13:08:45.568Z,11.77
2023-05-07T13:11:14.583Z,10.10
2023-05-07T13:13:43.192Z,11.68
2023-05-07T13:16:12.873Z,11.15
2023-05-07T13:18:44.723Z,9.88
2023-05-07T13:21:14.420Z,11.32
2023-05-07T13:23:42.987Z,10.57
2023-05-07T13:26:25.032Z,10.45
2023-05-07T13:28:57.841Z,10.65
2023-05-07T13:31:26.596Z,8.85
2023-05-07T13:33:57.228Z,8.75
2023-05-07T13:36:25.514Z,8.68
2023-05-07T13:38:53.761Z,8.88
2023-05-07T13:41:22.087Z,8.25
2023-05-07T13:43:50.577Z,7.25
2023-05-07T13:46:19.259Z,8.35
2023-05-07T13:48:47.574Z,8.57
2023-05-07T13:51:15.867Z,9.10
2023-05-07T13:53:44.117Z,7.70
2023-05-07T13:56:12.587Z,8.40
2023-05-07T13:58:48.582Z,7.30
2023-05-07T14:01:25.068Z,7.28
2023-05-07T14:03:53.462Z,8.10
2023-05-07T14:06:21.831Z,7.20
2023-05-07T14:08:51.346Z,6.97
2023-05-07T14:11:19.886Z,8.23
2023-05-07T14:13:48.187Z,8.00
2023-05-07T14:16:17.168Z,7.40
2023-05-07T14:18:46.606Z,7.25
2023-05-07T14:21:15.121Z,8.30
2023-05-07T14:23:43.468Z,7.35
2023-05-07T14:26:11.736Z,8.10
2023-05-07T14:28:47.204Z,6.30
2023-05-07T14:31:15.681Z,8.40
2023-05-07T14:33:44.129Z,8.73
2023-05-07T14:36:12.407Z,7.75
2023-05-07T14:38:40.807Z,7.53
2023-05-07T14:41:09.144Z,7.22
2023-05-07T14:43:37.493Z,7.55
2023-05-07T14:46:05.855Z,7.78
2023-05-07T14:48:34.069Z,8.27
2023-05-07T14:51:02.425Z,9.70
2023-05-07T14:53:30.955Z,8.63
2023-05-07T14:55:59.565Z,7.38
2023-05-07T14:58:27.882Z,7.70
2023-05-07T15:00:56.293Z,7.55
2023-05-07T15:03:24.680Z,7.53
2023-05-07T15:05:53.228Z,7.93
2023-05-07T15:08:21.703Z,7.38
2023-05-07T15:10:52.383Z,7.78
2023-05-07T15:13:20.895Z,8.77
2023-05-07T15:15:50.563Z,7.85
2023-05-07T15:18:22.678Z,8.45
2023-05-07T15:20:51.396Z,8.20
2023-05-07T15:23:19.657Z,7.90
2023-05-07T15:25:52.201Z,9.05
2023-05-07T15:28:21.298Z,7.15
2023-05-07T15:30:49.609Z,9.20
2023-05-07T15:33:18.090Z,9.45
2023-05-07T15:35:46.585Z,8.27
2023-05-07T15:38:15.553Z,8.35
2023-05-07T15:40:44.022Z,8.65
2023-05-07T15:43:14.178Z,8.07
2023-05-07T15:45:43.587Z,8.30
2023-05-07T15:48:12.572Z,7.68
2023-05-07T15:50:41.193Z,7.82
2023-05-07T15:53:10.267Z,7.25
2023-05-07T15:55:38.719Z,8.10
2023-05-07T15:58:07.227Z,7.70
2023-05-07T16:00:36.354Z,7.88
2023-05-07T16:03:05.231Z,8.77
2023-05-07T16:05:33.577Z,8.82
2023-05-07T16:08:01.937Z,9.73
2023-05-07T16:10:31.306Z,7.60
2023-05-07T16:12:59.666Z,7.80
2023-05-07T16:15:27.927Z,8.32
2023-05-07T16:17:58.309Z,10.95
2023-05-07T16:20:33.252Z,10.27
2023-05-07T16:23:01.460Z,9.75
2023-05-07T16:25:30.093Z,9.73
2023-05-07T16:27:58.297Z,9.40
2023-05-07T16:30:26.593Z,10.43
2023-05-07T16:32:54.955Z,10.18
2023-05-07T16:35:23.203Z,9.48
2023-05-07T16:37:51.641Z,9.40
2023-05-07T16:40:20.126Z,9.68
2023-05-07T16:42:48.417Z,9.45
2023-05-07T16:45:17.195Z,9.95
2023-05-07T16:47:45.794Z,9.70
2023-05-07T16:50:14.101Z,9.65
2023-05-07T16:52:42.325Z,9.30
2023-05-07T16:55:11.363Z,9.57
2023-05-07T16:57:40.056Z,10.90
2023-05-07T17:00:09.565Z,11.15
2023-05-07T17:02:38.052Z,10.55
2023-05-07T17:05:06.785Z,9.43
2023-05-07T17:07:35.451Z,9.68
2023-05-07T17:10:04.214Z,10.07
2023-05-07T17:12:32.780Z,9.90
2023-05-07T17:15:01.130Z,10.15
2023-05-07T17:17:29.469Z,9.35
2023-05-07T17:19:58.860Z,8.60
2023-05-07T17:22:27.767Z,10.38
2023-05-07T17:24:56.037Z,11.27
2023-05-07T17:27:24.641Z,10.18
2023-05-07T17:29:53.236Z,10.10
2023-05-07T17:32:21.595Z,9.15
2023-05-07T17:34:49.888Z,10.43
2023-05-07T17:37:18.438Z,9.25
2023-05-07T17:39:46.910Z,11.00
2023-05-07T17:42:15.325Z,11.40
2023-05-07T17:44:43.500Z,10.80
2023-05-07T17:47:14.168Z,11.73
2023-05-07T17:49:43.205Z,10.88
2023-05-07T17:52:11.479Z,10.65
2023-05-07T17:54:39.814Z,11.48
2023-05-07T17:57:08.194Z,11.13
2023-05-07T17:59:37.121Z,11.32
2023-05-07T18:02:05.807Z,11.90
2023-05-07T18:04:34.132Z,11.10
2023-05-07T18:07:02.521Z,9.85
2023-05-07T18:09:30.822Z,10.50
2023-05-07T18:12:00.209Z,10.68
2023-05-07T18:14:29.348Z,10.77
2023-05-07T18:16:57.653Z,10.93
2023-05-07T18:19:28.093Z,10.90
2023-05-07T18:21:58.217Z,11.70
2023-05-07T18:24:27.344Z,10.30
2023-05-07T18:26:55.742Z,11.40
2023-05-07T18:29:24.420Z,10.95
2023-05-07T18:31:52.965Z,11.82
2023-05-07T18:34:21.372Z,11.88
2023-05-07T18:36:49.756Z,11.48
2023-05-07T18:39:18.108Z,10.70
2023-05-07T18:41:48.871Z,10.38
2023-05-07T18:44:17.574Z,11.43
2023-05-07T18:46:47.873Z,10.35
2023-05-07T18:49:16.530Z,11.85
2023-05-07T18:51:45.739Z,12.40
2023-05-07T18:54:14.411Z,12.55
2023-05-07T18:56:42.965Z,11.82
2023-05-07T18:59:11.246Z,11.10
2023-05-07T19:01:39.674Z,11.63
2023-05-07T19:04:08.224Z,11.95
2023-05-07T19:06:36.649Z,11.90
2023-05-07T19:09:07.899Z,11.70
2023-05-07T19:11:36.178Z,11.75
2023-05-07T19:14:05.377Z,12.07
2023-05-07T19:16:33.843Z,12.57
2023-05-07T19:19:02.473Z,11.75
2023-05-07T19:21:31.648Z,11.43
2023-05-07T19:24:00.160Z,11.50
2023-05-07T19:26:28.480Z,11.93
2023-05-07T19:29:12.259Z,13.85
2023-05-07T19:31:45.573Z,13.85
2023-05-07T19:34:14.248Z,13.18
2023-05-07T19:36:43.082Z,14.45
2023-05-07T19:39:11.714Z,14.55
2023-05-07T19:41:41.913Z,15.57
2023-05-07T19:44:10.314Z,14.30
2023-05-07T19:46:40.549Z,14.63
2023-05-07T19:49:11.160Z,15.00
2023-05-07T19:51:41.087Z,14.68
2023-05-07T19:54:09.365Z,16.45
2023-05-07T19:56:37.715Z,14.75
2023-05-07T19:59:05.911Z,14.57
2023-05-07T20:01:34.608Z,14.93
2023-05-07T20:04:03.327Z,15.43
2023-05-07T20:06:31.911Z,14.70
2023-05-07T20:09:00.451Z,16.08
2023-05-07T20:11:28.965Z,15.18
2023-05-07T20:13:57.296Z,14.93
2023-05-07T20:16:25.576Z,15.10
2023-05-07T20:18:54.044Z,15.50
2023-05-07T20:21:22.291Z,15.77
2023-05-07T20:23:51.544Z,15.10
2023-05-07T20:26:19.809Z,15.15
2023-05-07T20:28:48.094Z,15.55
2023-05-07T20:31:16.726Z,17.00
2023-05-07T20:33:44.975Z,16.98
2023-05-07T20:36:13.285Z,16.73
2023-05-07T20:38:41.539Z,17.05
2023-05-07T20:41:11.830Z,16.88
2023-05-07T20:43:40.141Z,16.88
2023-05-07T20:46:08.510Z,15.73
2023-05-07T20:48:36.763Z,16.20
2023-05-07T20:51:05.076Z,15.57
2023-05-07T20:53:33.526Z,16.42
2023-05-07T20:56:01.746Z,16.40
2023-05-07T20:58:29.990Z,16.23
2023-05-07T21:00:58.374Z,15.43
2023-05-07T21:03:27.680Z,15.43
2023-05-07T21:05:57.869Z,15.63
2023-05-07T21:08:26.791Z,13.45
2023-05-07T21:10:55.472Z,14.63
2023-05-07T21:13:24.350Z,13.15
2023-05-07T21:15:53.176Z,12.90
2023-05-07T21:18:21.517Z,12.43
2023-05-07T21:20:49.814Z,13.35
2023-05-07T21:23:18.085Z,14.75
2023-05-07T21:25:47.299Z,12.85
2023-05-07T21:28:15.802Z,15.00
2023-05-07T21:30:44.020Z,15.57
2023-05-07T21:33:12.370Z,16.88
2023-05-07T21:35:40.614Z,20.55
2023-05-07T21:38:09.134Z,19.63
2023-05-07T21:40:37.606Z,13.80
2023-05-07T21:43:05.943Z,6.75
2023-05-07T21:45:34.381Z,3.60
2023-05-07T21:48:02.886Z,2.78
2023-05-07T21:50:31.159Z,2.55
2023-05-07T21:52:59.424Z,2.65
2023-05-07T21:55:27.701Z,1.58
2023-05-07T21:58:04.888Z,2.33
2023-05-07T22:00:34.443Z,1.95
2023-05-07T22:03:02.808Z,1.30
2023-05-07T22:05:31.368Z,1.20
2023-05-07T22:07:59.651Z,1.90
2023-05-07T22:10:27.964Z,1.95
2023-05-07T22:12:56.211Z,2.10
2023-05-07T22:15:24.651Z,2.33
2023-05-07T22:17:53.001Z,2.85
2023-05-07T22:20:21.501Z,3.88
2023-05-07T22:22:53.646Z,3.20
2023-05-07T22:25:23.715Z,3.45
2023-05-07T22:27:53.064Z,2.58
2023-05-07T22:30:21.349Z,3.55
2023-05-07T22:32:49.741Z,3.53
2023-05-07T22:35:18.209Z,3.67
2023-05-07T22:37:46.468Z,2.80
2023-05-07T22:40:15.431Z,4.88
2023-05-07T22:45:46.851Z,2.47
2023-05-07T22:48:15.165Z,2.30
2023-05-07T22:50:43.389Z,2.45
2023-05-07T22:53:11.631Z,2.20
2023-05-07T22:55:39.883Z,2.22
2023-05-07T22:58:08.138Z,1.90
2023-05-07T23:00:36.454Z,2.05
2023-05-07T23:03:04.851Z,2.20
2023-05-07T23:05:33.723Z,1.60
2023-05-07T23:08:02.219Z,2.25
2023-05-07T23:10:31.292Z,2.40
2023-05-07T23:12:59.635Z,2.10
2023-05-07T23:15:28.012Z,2.13
2023-05-07T23:17:56.406Z,2.05
2023-05-07T23:20:24.933Z,2.17
2023-05-07T23:22:53.535Z,2.20
2023-05-07T23:25:21.847Z,2.08
2023-05-07T23:27:50.235Z,2.05
2023-05-07T23:30:18.481Z,2.08
2023-05-07T23:32:46.766Z,2.65
2023-05-07T23:35:15.127Z,2.20
2023-05-07T23:37:43.364Z,2.17
2023-05-07T23:40:11.988Z,2.63
2023-05-07T23:42:40.324Z,2.78
2023-05-07T23:45:09.044Z,2.63
2023-05-07T23:47:37.394Z,2.20
2023-05-07T23:50:06.125Z,2.80
2023-05-07T23:52:34.417Z,2.33
2023-05-07T23:55:02.858Z,2.83
2023-05-07T23:57:31.431Z,2.35
